sensor_id;sensor_type;location;lat;lon;timestamp;P1;durP1;ratioP1;P2;durP2;ratioP2
25707;SDS011;13567;61.652;17.100;2022-07-12T00:01:56;8.43;;;3.22;;
25707;SDS011;13567;61.652;17.100;2022-07-12T00:04:23;10.25;;;3.22;;
25707;SDS011;13567;61.652;17.100;2022-07-12T00:06:50;8.00;;;3.03;;
25707;SDS011;13567;61.652;17.100;2022-07-12T00:09:17;9.40;;;3.53;;
25707;SDS011;13567;61.652;17.100;2022-07-12T00:11:44;9.82;;;3.28;;
25707;SDS011;13567;61.652;17.100;2022-07-12T00:14:12;10.13;;;3.22;;
25707;SDS011;13567;61.652;17.100;2022-07-12T00:16:39;5.93;;;2.78;;
25707;SDS011;13567;61.652;17.100;2022-07-12T00:19:06;8.70;;;2.97;;
25707;SDS011;13567;61.652;17.100;2022-07-12T00:21:33;8.45;;;2.97;;
25707;SDS011;13567;61.652;17.100;2022-07-12T00:24:00;6.57;;;2.70;;
25707;SDS011;13567;61.652;17.100;2022-07-12T00:26:27;9.30;;;2.90;;
25707;SDS011;13567;61.652;17.100;2022-07-12T00:28:54;7.95;;;3.40;;
25707;SDS011;13567;61.652;17.100;2022-07-12T00:31:21;9.13;;;2.90;;
25707;SDS011;13567;61.652;17.100;2022-07-12T00:33:48;8.43;;;3.03;;
25707;SDS011;13567;61.652;17.100;2022-07-12T00:36:15;8.63;;;3.50;;
25707;SDS011;13567;61.652;17.100;2022-07-12T00:38:42;9.10;;;3.25;;
25707;SDS011;13567;61.652;17.100;2022-07-12T00:41:09;6.75;;;2.83;;
25707;SDS011;13567;61.652;17.100;2022-07-12T00:43:36;8.90;;;3.40;;
25707;SDS011;13567;61.652;17.100;2022-07-12T00:46:03;9.60;;;3.50;;
25707;SDS011;13567;61.652;17.100;2022-07-12T00:48:31;8.23;;;3.03;;
25707;SDS011;13567;61.652;17.100;2022-07-12T00:51:00;7.63;;;2.90;;
25707;SDS011;13567;61.652;17.100;2022-07-12T00:53:27;7.55;;;3.08;;
25707;SDS011;13567;61.652;17.100;2022-07-12T00:55:55;9.63;;;3.00;;
25707;SDS011;13567;61.652;17.100;2022-07-12T00:58:26;6.28;;;2.78;;
25707;SDS011;13567;61.652;17.100;2022-07-12T01:00:55;9.63;;;3.20;;
25707;SDS011;13567;61.652;17.100;2022-07-12T01:03:23;8.90;;;3.35;;
25707;SDS011;13567;61.652;17.100;2022-07-12T01:05:51;12.13;;;3.50;;
25707;SDS011;13567;61.652;17.100;2022-07-12T01:08:18;8.50;;;3.00;;
25707;SDS011;13567;61.652;17.100;2022-07-12T01:10:47;8.15;;;2.85;;
25707;SDS011;13567;61.652;17.100;2022-07-12T01:13:16;8.88;;;2.83;;
25707;SDS011;13567;61.652;17.100;2022-07-12T01:15:44;6.15;;;2.63;;
25707;SDS011;13567;61.652;17.100;2022-07-12T01:18:14;5.50;;;2.42;;
25707;SDS011;13567;61.652;17.100;2022-07-12T01:20:44;8.98;;;2.70;;
25707;SDS011;13567;61.652;17.100;2022-07-12T01:23:12;5.25;;;2.40;;
25707;SDS011;13567;61.652;17.100;2022-07-12T01:25:40;6.25;;;2.60;;
25707;SDS011;13567;61.652;17.100;2022-07-12T01:28:07;5.68;;;2.20;;
25707;SDS011;13567;61.652;17.100;2022-07-12T01:30:33;9.05;;;2.72;;
25707;SDS011;13567;61.652;17.100;2022-07-12T01:33:01;5.88;;;2.25;;
25707;SDS011;13567;61.652;17.100;2022-07-12T01:35:28;5.88;;;2.10;;
25707;SDS011;13567;61.652;17.100;2022-07-12T01:37:55;8.07;;;2.97;;
25707;SDS011;13567;61.652;17.100;2022-07-12T01:40:22;4.88;;;2.05;;
25707;SDS011;13567;61.652;17.100;2022-07-12T01:42:49;4.80;;;1.90;;
25707;SDS011;13567;61.652;17.100;2022-07-12T01:45:18;6.70;;;1.90;;
25707;SDS011;13567;61.652;17.100;2022-07-12T01:47:45;6.60;;;1.70;;
25707;SDS011;13567;61.652;17.100;2022-07-12T01:50:13;7.38;;;1.80;;
25707;SDS011;13567;61.652;17.100;2022-07-12T01:52:40;5.15;;;2.03;;
25707;SDS011;13567;61.652;17.100;2022-07-12T01:55:08;8.57;;;2.10;;
25707;SDS011;13567;61.652;17.100;2022-07-12T01:57:38;4.05;;;1.80;;
25707;SDS011;13567;61.652;17.100;2022-07-12T02:00:07;4.10;;;1.90;;
25707;SDS011;13567;61.652;17.100;2022-07-12T02:02:35;4.47;;;1.90;;
25707;SDS011;13567;61.652;17.100;2022-07-12T02:05:02;5.03;;;1.90;;
25707;SDS011;13567;61.652;17.100;2022-07-12T02:07:30;3.55;;;1.70;;
25707;SDS011;13567;61.652;17.100;2022-07-12T02:09:58;5.53;;;1.50;;
25707;SDS011;13567;61.652;17.100;2022-07-12T02:12:25;6.30;;;2.00;;
25707;SDS011;13567;61.652;17.100;2022-07-12T02:14:52;4.47;;;1.50;;
25707;SDS011;13567;61.652;17.100;2022-07-12T02:17:19;3.78;;;1.48;;
25707;SDS011;13567;61.652;17.100;2022-07-12T02:19:46;4.97;;;1.45;;
25707;SDS011;13567;61.652;17.100;2022-07-12T02:22:13;6.05;;;1.63;;
25707;SDS011;13567;61.652;17.100;2022-07-12T02:24:40;6.82;;;1.60;;
25707;SDS011;13567;61.652;17.100;2022-07-12T02:27:07;3.13;;;1.52;;
25707;SDS011;13567;61.652;17.100;2022-07-12T02:29:34;2.85;;;1.23;;
25707;SDS011;13567;61.652;17.100;2022-07-12T02:32:04;3.63;;;1.58;;
25707;SDS011;13567;61.652;17.100;2022-07-12T02:34:31;4.35;;;1.80;;
25707;SDS011;13567;61.652;17.100;2022-07-12T02:36:58;3.55;;;1.73;;
25707;SDS011;13567;61.652;17.100;2022-07-12T02:39:25;3.30;;;1.40;;
25707;SDS011;13567;61.652;17.100;2022-07-12T02:41:52;3.70;;;1.40;;
25707;SDS011;13567;61.652;17.100;2022-07-12T02:44:19;3.42;;;1.60;;
25707;SDS011;13567;61.652;17.100;2022-07-12T02:46:46;5.20;;;1.45;;
25707;SDS011;13567;61.652;17.100;2022-07-12T02:49:13;2.95;;;1.40;;
25707;SDS011;13567;61.652;17.100;2022-07-12T02:51:40;4.13;;;1.30;;
25707;SDS011;13567;61.652;17.100;2022-07-12T02:54:07;3.70;;;1.23;;
25707;SDS011;13567;61.652;17.100;2022-07-12T02:56:34;3.05;;;1.55;;
25707;SDS011;13567;61.652;17.100;2022-07-12T02:59:02;5.28;;;1.38;;
25707;SDS011;13567;61.652;17.100;2022-07-12T03:01:29;5.85;;;1.48;;
25707;SDS011;13567;61.652;17.100;2022-07-12T03:03:56;3.17;;;1.45;;
25707;SDS011;13567;61.652;17.100;2022-07-12T03:06:23;2.50;;;1.20;;
25707;SDS011;13567;61.652;17.100;2022-07-12T03:08:50;3.83;;;1.30;;
25707;SDS011;13567;61.652;17.100;2022-07-12T03:11:17;4.18;;;1.30;;
25707;SDS011;13567;61.652;17.100;2022-07-12T03:13:44;5.55;;;1.38;;
25707;SDS011;13567;61.652;17.100;2022-07-12T03:16:11;2.28;;;1.33;;
25707;SDS011;13567;61.652;17.100;2022-07-12T03:18:40;2.42;;;1.20;;
25707;SDS011;13567;61.652;17.100;2022-07-12T03:21:07;2.25;;;1.20;;
25707;SDS011;13567;61.652;17.100;2022-07-12T03:23:34;3.17;;;1.23;;
25707;SDS011;13567;61.652;17.100;2022-07-12T03:26:01;3.85;;;1.13;;
25707;SDS011;13567;61.652;17.100;2022-07-12T03:28:29;4.13;;;1.40;;
25707;SDS011;13567;61.652;17.100;2022-07-12T03:30:56;1.63;;;1.02;;
25707;SDS011;13567;61.652;17.100;2022-07-12T03:33:23;2.83;;;1.20;;
25707;SDS011;13567;61.652;17.100;2022-07-12T03:35:58;2.47;;;1.05;;
25707;SDS011;13567;61.652;17.100;2022-07-12T03:38:26;2.88;;;1.17;;
25707;SDS011;13567;61.652;17.100;2022-07-12T03:40:53;1.83;;;1.00;;
25707;SDS011;13567;61.652;17.100;2022-07-12T03:43:20;3.55;;;0.90;;
25707;SDS011;13567;61.652;17.100;2022-07-12T03:45:47;1.10;;;0.90;;
25707;SDS011;13567;61.652;17.100;2022-07-12T03:48:14;3.42;;;1.05;;
25707;SDS011;13567;61.652;17.100;2022-07-12T03:50:41;4.28;;;0.98;;
25707;SDS011;13567;61.652;17.100;2022-07-12T03:53:08;4.05;;;1.15;;
25707;SDS011;13567;61.652;17.100;2022-07-12T03:55:35;5.32;;;1.20;;
25707;SDS011;13567;61.652;17.100;2022-07-12T03:58:02;2.72;;;1.10;;
25707;SDS011;13567;61.652;17.100;2022-07-12T04:00:29;3.53;;;1.20;;
25707;SDS011;13567;61.652;17.100;2022-07-12T04:02:57;5.10;;;1.40;;
25707;SDS011;13567;61.652;17.100;2022-07-12T04:05:24;3.75;;;1.00;;
25707;SDS011;13567;61.652;17.100;2022-07-12T04:07:53;2.78;;;1.00;;
25707;SDS011;13567;61.652;17.100;2022-07-12T04:10:21;3.22;;;1.10;;
25707;SDS011;13567;61.652;17.100;2022-07-12T04:12:48;3.85;;;1.35;;
25707;SDS011;13567;61.652;17.100;2022-07-12T04:15:16;4.25;;;1.00;;
25707;SDS011;13567;61.652;17.100;2022-07-12T04:17:43;5.18;;;1.00;;
25707;SDS011;13567;61.652;17.100;2022-07-12T04:20:10;3.00;;;1.10;;
25707;SDS011;13567;61.652;17.100;2022-07-12T04:22:38;1.70;;;0.80;;
25707;SDS011;13567;61.652;17.100;2022-07-12T04:25:06;2.00;;;0.88;;
25707;SDS011;13567;61.652;17.100;2022-07-12T04:27:33;0.95;;;0.80;;
25707;SDS011;13567;61.652;17.100;2022-07-12T04:30:01;1.98;;;0.90;;
25707;SDS011;13567;61.652;17.100;2022-07-12T04:32:29;2.85;;;0.90;;
25707;SDS011;13567;61.652;17.100;2022-07-12T04:34:56;2.45;;;0.90;;
25707;SDS011;13567;61.652;17.100;2022-07-12T04:37:23;2.95;;;1.05;;
25707;SDS011;13567;61.652;17.100;2022-07-12T04:39:50;1.25;;;0.65;;
25707;SDS011;13567;61.652;17.100;2022-07-12T04:42:17;1.88;;;0.82;;
25707;SDS011;13567;61.652;17.100;2022-07-12T04:44:44;1.38;;;0.70;;
25707;SDS011;13567;61.652;17.100;2022-07-12T04:47:11;1.83;;;1.05;;
25707;SDS011;13567;61.652;17.100;2022-07-12T04:49:38;1.27;;;0.65;;
25707;SDS011;13567;61.652;17.100;2022-07-12T04:52:05;0.75;;;0.60;;
25707;SDS011;13567;61.652;17.100;2022-07-12T04:54:32;1.60;;;0.63;;
25707;SDS011;13567;61.652;17.100;2022-07-12T04:56:59;3.65;;;0.68;;
25707;SDS011;13567;61.652;17.100;2022-07-12T04:59:26;2.90;;;0.90;;
25707;SDS011;13567;61.652;17.100;2022-07-12T05:01:53;4.05;;;0.98;;
25707;SDS011;13567;61.652;17.100;2022-07-12T05:04:20;1.38;;;0.65;;
25707;SDS011;13567;61.652;17.100;2022-07-12T05:06:48;1.10;;;0.60;;
25707;SDS011;13567;61.652;17.100;2022-07-12T05:09:15;0.82;;;0.60;;
25707;SDS011;13567;61.652;17.100;2022-07-12T05:11:42;2.13;;;0.68;;
25707;SDS011;13567;61.652;17.100;2022-07-12T05:14:10;4.90;;;0.90;;
25707;SDS011;13567;61.652;17.100;2022-07-12T05:16:37;2.22;;;0.70;;
25707;SDS011;13567;61.652;17.100;2022-07-12T05:19:04;1.33;;;0.60;;
25707;SDS011;13567;61.652;17.100;2022-07-12T05:21:31;1.35;;;0.70;;
25707;SDS011;13567;61.652;17.100;2022-07-12T05:24:01;1.23;;;0.50;;
25707;SDS011;13567;61.652;17.100;2022-07-12T05:26:29;2.00;;;0.80;;
25707;SDS011;13567;61.652;17.100;2022-07-12T05:28:56;1.75;;;0.55;;
25707;SDS011;13567;61.652;17.100;2022-07-12T05:31:23;3.22;;;0.75;;
25707;SDS011;13567;61.652;17.100;2022-07-12T05:33:51;1.15;;;0.60;;
25707;SDS011;13567;61.652;17.100;2022-07-12T05:36:18;1.88;;;0.68;;
25707;SDS011;13567;61.652;17.100;2022-07-12T05:38:45;3.75;;;0.90;;
25707;SDS011;13567;61.652;17.100;2022-07-12T05:41:12;2.45;;;0.47;;
25707;SDS011;13567;61.652;17.100;2022-07-12T05:43:39;5.47;;;0.80;;
25707;SDS011;13567;61.652;17.100;2022-07-12T05:46:06;1.63;;;0.75;;
25707;SDS011;13567;61.652;17.100;2022-07-12T05:48:35;1.73;;;0.80;;
25707;SDS011;13567;61.652;17.100;2022-07-12T05:51:02;3.83;;;0.75;;
25707;SDS011;13567;61.652;17.100;2022-07-12T05:53:48;2.40;;;0.63;;
25707;SDS011;13567;61.652;17.100;2022-07-12T05:56:15;3.40;;;0.50;;
25707;SDS011;13567;61.652;17.100;2022-07-12T05:58:42;2.58;;;0.63;;
25707;SDS011;13567;61.652;17.100;2022-07-12T06:01:09;0.82;;;0.50;;
25707;SDS011;13567;61.652;17.100;2022-07-12T06:03:36;1.50;;;0.63;;
25707;SDS011;13567;61.652;17.100;2022-07-12T06:06:04;1.02;;;0.60;;
25707;SDS011;13567;61.652;17.100;2022-07-12T06:08:31;1.08;;;0.40;;
25707;SDS011;13567;61.652;17.100;2022-07-12T06:10:58;1.05;;;0.60;;
25707;SDS011;13567;61.652;17.100;2022-07-12T06:13:25;1.98;;;0.70;;
25707;SDS011;13567;61.652;17.100;2022-07-12T06:15:52;4.15;;;0.57;;
25707;SDS011;13567;61.652;17.100;2022-07-12T06:18:19;2.88;;;0.68;;
25707;SDS011;13567;61.652;17.100;2022-07-12T06:20:46;0.88;;;0.65;;
25707;SDS011;13567;61.652;17.100;2022-07-12T06:23:13;1.65;;;0.57;;
25707;SDS011;13567;61.652;17.100;2022-07-12T06:25:40;2.38;;;0.45;;
25707;SDS011;13567;61.652;17.100;2022-07-12T06:28:09;2.47;;;0.40;;
25707;SDS011;13567;61.652;17.100;2022-07-12T06:30:37;1.27;;;0.68;;
25707;SDS011;13567;61.652;17.100;2022-07-12T06:33:04;2.63;;;0.60;;
25707;SDS011;13567;61.652;17.100;2022-07-12T06:35:32;2.05;;;0.57;;
25707;SDS011;13567;61.652;17.100;2022-07-12T06:38:01;1.95;;;0.57;;
25707;SDS011;13567;61.652;17.100;2022-07-12T06:40:28;2.50;;;0.77;;
25707;SDS011;13567;61.652;17.100;2022-07-12T06:42:55;1.48;;;0.60;;
25707;SDS011;13567;61.652;17.100;2022-07-12T06:45:23;1.10;;;0.40;;
25707;SDS011;13567;61.652;17.100;2022-07-12T06:47:51;1.73;;;0.60;;
25707;SDS011;13567;61.652;17.100;2022-07-12T06:50:18;0.98;;;0.60;;
25707;SDS011;13567;61.652;17.100;2022-07-12T06:52:46;1.92;;;0.60;;
25707;SDS011;13567;61.652;17.100;2022-07-12T06:55:13;2.53;;;0.50;;
25707;SDS011;13567;61.652;17.100;2022-07-12T06:57:40;2.88;;;0.60;;
25707;SDS011;13567;61.652;17.100;2022-07-12T07:00:08;3.55;;;0.50;;
25707;SDS011;13567;61.652;17.100;2022-07-12T07:02:35;1.55;;;0.63;;
25707;SDS011;13567;61.652;17.100;2022-07-12T07:05:04;2.22;;;0.50;;
25707;SDS011;13567;61.652;17.100;2022-07-12T07:07:32;2.75;;;0.38;;
25707;SDS011;13567;61.652;17.100;2022-07-12T07:09:59;2.08;;;0.55;;
25707;SDS011;13567;61.652;17.100;2022-07-12T07:12:26;3.05;;;0.55;;
25707;SDS011;13567;61.652;17.100;2022-07-12T07:14:54;3.92;;;0.50;;
25707;SDS011;13567;61.652;17.100;2022-07-12T07:17:21;1.05;;;0.50;;
25707;SDS011;13567;61.652;17.100;2022-07-12T07:19:49;1.63;;;0.30;;
25707;SDS011;13567;61.652;17.100;2022-07-12T07:22:16;2.95;;;0.47;;
25707;SDS011;13567;61.652;17.100;2022-07-12T07:24:45;2.65;;;0.40;;
25707;SDS011;13567;61.652;17.100;2022-07-12T07:27:12;0.73;;;0.40;;
25707;SDS011;13567;61.652;17.100;2022-07-12T07:29:39;1.90;;;0.50;;
25707;SDS011;13567;61.652;17.100;2022-07-12T07:32:25;0.82;;;0.40;;
25707;SDS011;13567;61.652;17.100;2022-07-12T07:34:52;1.65;;;0.60;;
25707;SDS011;13567;61.652;17.100;2022-07-12T07:37:19;0.98;;;0.50;;
25707;SDS011;13567;61.652;17.100;2022-07-12T07:39:47;0.38;;;0.30;;
25707;SDS011;13567;61.652;17.100;2022-07-12T07:42:14;2.03;;;0.20;;
25707;SDS011;13567;61.652;17.100;2022-07-12T07:44:41;0.77;;;0.30;;
25707;SDS011;13567;61.652;17.100;2022-07-12T07:47:28;0.98;;;0.40;;
25707;SDS011;13567;61.652;17.100;2022-07-12T07:49:55;1.10;;;0.50;;
25707;SDS011;13567;61.652;17.100;2022-07-12T07:52:22;1.30;;;0.40;;
25707;SDS011;13567;61.652;17.100;2022-07-12T07:54:49;1.63;;;0.60;;
25707;SDS011;13567;61.652;17.100;2022-07-12T07:57:17;1.15;;;0.40;;
25707;SDS011;13567;61.652;17.100;2022-07-12T07:59:44;0.90;;;0.40;;
25707;SDS011;13567;61.652;17.100;2022-07-12T08:02:11;3.90;;;0.60;;
25707;SDS011;13567;61.652;17.100;2022-07-12T08:04:39;2.47;;;0.47;;
25707;SDS011;13567;61.652;17.100;2022-07-12T08:07:06;1.95;;;0.50;;
25707;SDS011;13567;61.652;17.100;2022-07-12T08:09:33;3.47;;;0.30;;
25707;SDS011;13567;61.652;17.100;2022-07-12T08:12:01;0.63;;;0.32;;
25707;SDS011;13567;61.652;17.100;2022-07-12T08:14:29;0.52;;;0.25;;
25707;SDS011;13567;61.652;17.100;2022-07-12T08:16:57;2.35;;;0.43;;
25707;SDS011;13567;61.652;17.100;2022-07-12T08:19:25;0.47;;;0.40;;
25707;SDS011;13567;61.652;17.100;2022-07-12T08:21:52;0.30;;;0.30;;
25707;SDS011;13567;61.652;17.100;2022-07-12T08:24:19;1.23;;;0.40;;
25707;SDS011;13567;61.652;17.100;2022-07-12T08:26:46;0.73;;;0.20;;
25707;SDS011;13567;61.652;17.100;2022-07-12T08:29:14;1.35;;;0.30;;
25707;SDS011;13567;61.652;17.100;2022-07-12T08:31:41;2.38;;;0.35;;
25707;SDS011;13567;61.652;17.100;2022-07-12T08:34:09;0.38;;;0.30;;
25707;SDS011;13567;61.652;17.100;2022-07-12T08:36:36;0.70;;;0.30;;
25707;SDS011;13567;61.652;17.100;2022-07-12T08:39:03;1.00;;;0.38;;
25707;SDS011;13567;61.652;17.100;2022-07-12T08:41:30;1.95;;;0.30;;
25707;SDS011;13567;61.652;17.100;2022-07-12T08:43:57;0.40;;;0.20;;
25707;SDS011;13567;61.652;17.100;2022-07-12T08:46:24;2.65;;;0.40;;
25707;SDS011;13567;61.652;17.100;2022-07-12T08:48:51;3.10;;;0.60;;
25707;SDS011;13567;61.652;17.100;2022-07-12T08:51:19;2.92;;;0.25;;
25707;SDS011;13567;61.652;17.100;2022-07-12T08:53:47;0.70;;;0.43;;
25707;SDS011;13567;61.652;17.100;2022-07-12T08:56:31;1.05;;;0.50;;
25707;SDS011;13567;61.652;17.100;2022-07-12T08:59:12;1.35;;;0.40;;
25707;SDS011;13567;61.652;17.100;2022-07-12T09:01:47;1.73;;;0.57;;
25707;SDS011;13567;61.652;17.100;2022-07-12T09:04:19;3.88;;;0.70;;
25707;SDS011;13567;61.652;17.100;2022-07-12T09:06:57;1.33;;;0.40;;
25707;SDS011;13567;61.652;17.100;2022-07-12T09:09:40;3.20;;;0.45;;
25707;SDS011;13567;61.652;17.100;2022-07-12T09:12:08;2.17;;;0.40;;
25707;SDS011;13567;61.652;17.100;2022-07-12T09:14:52;1.85;;;0.47;;
25707;SDS011;13567;61.652;17.100;2022-07-12T09:17:22;0.73;;;0.30;;
25707;SDS011;13567;61.652;17.100;2022-07-12T09:19:55;1.67;;;0.43;;
25707;SDS011;13567;61.652;17.100;2022-07-12T09:22:23;1.55;;;0.55;;
25707;SDS011;13567;61.652;17.100;2022-07-12T09:24:50;1.85;;;0.57;;
25707;SDS011;13567;61.652;17.100;2022-07-12T09:27:23;1.38;;;0.50;;
25707;SDS011;13567;61.652;17.100;2022-07-12T09:29:52;2.30;;;0.55;;
25707;SDS011;13567;61.652;17.100;2022-07-12T09:32:25;2.65;;;0.50;;
25707;SDS011;13567;61.652;17.100;2022-07-12T09:35:10;1.05;;;0.40;;
25707;SDS011;13567;61.652;17.100;2022-07-12T09:38:01;2.15;;;0.30;;
25707;SDS011;13567;61.652;17.100;2022-07-12T09:40:34;2.05;;;0.45;;
25707;SDS011;13567;61.652;17.100;2022-07-12T09:43:02;2.60;;;0.50;;
25707;SDS011;13567;61.652;17.100;2022-07-12T09:45:31;1.52;;;0.38;;
25707;SDS011;13567;61.652;17.100;2022-07-12T09:47:59;2.83;;;0.55;;
25707;SDS011;13567;61.652;17.100;2022-07-12T09:50:27;1.70;;;0.50;;
25707;SDS011;13567;61.652;17.100;2022-07-12T09:52:57;2.42;;;0.38;;
25707;SDS011;13567;61.652;17.100;2022-07-12T09:55:26;0.82;;;0.40;;
25707;SDS011;13567;61.652;17.100;2022-07-12T09:57:56;1.02;;;0.50;;
25707;SDS011;13567;61.652;17.100;2022-07-12T10:00:28;0.73;;;0.32;;
25707;SDS011;13567;61.652;17.100;2022-07-12T10:02:56;1.30;;;0.40;;
25707;SDS011;13567;61.652;17.100;2022-07-12T10:05:25;3.30;;;0.40;;
25707;SDS011;13567;61.652;17.100;2022-07-12T10:07:55;1.65;;;0.50;;
25707;SDS011;13567;61.652;17.100;2022-07-12T10:10:23;1.30;;;0.50;;
25707;SDS011;13567;61.652;17.100;2022-07-12T10:12:51;3.05;;;0.60;;
25707;SDS011;13567;61.652;17.100;2022-07-12T10:15:20;1.35;;;0.38;;
25707;SDS011;13567;61.652;17.100;2022-07-12T10:17:53;3.10;;;0.50;;
25707;SDS011;13567;61.652;17.100;2022-07-12T10:20:23;1.48;;;0.40;;
25707;SDS011;13567;61.652;17.100;2022-07-12T10:22:53;1.48;;;0.40;;
25707;SDS011;13567;61.652;17.100;2022-07-12T10:27:52;2.20;;;0.75;;
25707;SDS011;13567;61.652;17.100;2022-07-12T10:30:20;2.25;;;0.88;;
25707;SDS011;13567;61.652;17.100;2022-07-12T10:32:50;4.60;;;1.80;;
25707;SDS011;13567;61.652;17.100;2022-07-12T10:35:20;3.40;;;0.68;;
25707;SDS011;13567;61.652;17.100;2022-07-12T10:40:37;4.10;;;1.35;;
25707;SDS011;13567;61.652;17.100;2022-07-12T10:45:42;3.25;;;0.88;;
25707;SDS011;13567;61.652;17.100;2022-07-12T10:53:34;3.92;;;0.77;;
25707;SDS011;13567;61.652;17.100;2022-07-12T10:58:44;1.52;;;0.68;;
25707;SDS011;13567;61.652;17.100;2022-07-12T11:01:24;2.65;;;0.40;;
25707;SDS011;13567;61.652;17.100;2022-07-12T11:03:56;1.95;;;0.50;;
25707;SDS011;13567;61.652;17.100;2022-07-12T11:06:33;4.10;;;1.30;;
25707;SDS011;13567;61.652;17.100;2022-07-12T11:09:03;2.30;;;0.75;;
25707;SDS011;13567;61.652;17.100;2022-07-12T11:11:32;1.50;;;0.75;;
25707;SDS011;13567;61.652;17.100;2022-07-12T11:14:23;3.00;;;0.73;;
25707;SDS011;13567;61.652;17.100;2022-07-12T11:16:51;2.13;;;0.50;;
25707;SDS011;13567;61.652;17.100;2022-07-12T11:19:24;7.53;;;0.73;;
25707;SDS011;13567;61.652;17.100;2022-07-12T11:21:55;1.27;;;0.40;;
25707;SDS011;13567;61.652;17.100;2022-07-12T11:24:24;1.05;;;0.60;;
25707;SDS011;13567;61.652;17.100;2022-07-12T11:26:56;2.15;;;0.40;;
25707;SDS011;13567;61.652;17.100;2022-07-12T11:29:24;1.63;;;0.52;;
25707;SDS011;13567;61.652;17.100;2022-07-12T11:32:02;1.92;;;0.50;;
25707;SDS011;13567;61.652;17.100;2022-07-12T11:34:37;1.70;;;0.45;;
25707;SDS011;13567;61.652;17.100;2022-07-12T11:37:05;2.03;;;0.52;;
25707;SDS011;13567;61.652;17.100;2022-07-12T11:39:35;0.57;;;0.30;;
25707;SDS011;13567;61.652;17.100;2022-07-12T11:42:04;5.43;;;0.50;;
25707;SDS011;13567;61.652;17.100;2022-07-12T11:44:45;2.35;;;0.40;;
25707;SDS011;13567;61.652;17.100;2022-07-12T11:47:14;0.35;;;0.30;;
25707;SDS011;13567;61.652;17.100;2022-07-12T11:49:46;2.38;;;0.40;;
25707;SDS011;13567;61.652;17.100;2022-07-12T11:52:17;1.05;;;0.40;;
25707;SDS011;13567;61.652;17.100;2022-07-12T11:54:47;1.10;;;0.32;;
25707;SDS011;13567;61.652;17.100;2022-07-12T11:57:18;2.30;;;0.50;;
25707;SDS011;13567;61.652;17.100;2022-07-12T11:59:47;1.10;;;0.40;;
25707;SDS011;13567;61.652;17.100;2022-07-12T12:02:15;0.40;;;0.30;;
25707;SDS011;13567;61.652;17.100;2022-07-12T12:04:47;0.85;;;0.43;;
25707;SDS011;13567;61.652;17.100;2022-07-12T12:07:19;3.17;;;0.70;;
25707;SDS011;13567;61.652;17.100;2022-07-12T12:09:57;0.95;;;0.50;;
25707;SDS011;13567;61.652;17.100;2022-07-12T12:12:44;4.18;;;0.50;;
25707;SDS011;13567;61.652;17.100;2022-07-12T12:15:21;2.65;;;0.30;;
25707;SDS011;13567;61.652;17.100;2022-07-12T12:20:21;2.50;;;0.30;;
25707;SDS011;13567;61.652;17.100;2022-07-12T12:22:56;1.27;;;0.40;;
25707;SDS011;13567;61.652;17.100;2022-07-12T12:25:31;4.60;;;0.70;;
25707;SDS011;13567;61.652;17.100;2022-07-12T12:28:03;3.40;;;0.43;;
25707;SDS011;13567;61.652;17.100;2022-07-12T12:30:50;2.92;;;0.40;;
25707;SDS011;13567;61.652;17.100;2022-07-12T12:33:38;0.52;;;0.40;;
25707;SDS011;13567;61.652;17.100;2022-07-12T12:36:20;0.95;;;0.50;;
25707;SDS011;13567;61.652;17.100;2022-07-12T12:38:50;0.82;;;0.40;;
25707;SDS011;13567;61.652;17.100;2022-07-12T12:41:19;2.75;;;0.52;;
25707;SDS011;13567;61.652;17.100;2022-07-12T12:44:05;2.97;;;0.70;;
25707;SDS011;13567;61.652;17.100;2022-07-12T12:46:50;1.45;;;0.47;;
25707;SDS011;13567;61.652;17.100;2022-07-12T12:49:43;1.83;;;0.60;;
25707;SDS011;13567;61.652;17.100;2022-07-12T12:52:23;1.33;;;0.55;;
25707;SDS011;13567;61.652;17.100;2022-07-12T12:54:51;1.45;;;0.40;;
25707;SDS011;13567;61.652;17.100;2022-07-12T12:57:18;0.98;;;0.50;;
25707;SDS011;13567;61.652;17.100;2022-07-12T12:59:46;1.55;;;0.50;;
25707;SDS011;13567;61.652;17.100;2022-07-12T13:02:13;0.52;;;0.43;;
25707;SDS011;13567;61.652;17.100;2022-07-12T13:04:40;0.30;;;0.25;;
25707;SDS011;13567;61.652;17.100;2022-07-12T13:07:07;1.08;;;0.50;;
25707;SDS011;13567;61.652;17.100;2022-07-12T13:09:39;0.77;;;0.35;;
25707;SDS011;13567;61.652;17.100;2022-07-12T13:12:07;1.35;;;0.40;;
25707;SDS011;13567;61.652;17.100;2022-07-12T13:14:34;3.05;;;0.60;;
25707;SDS011;13567;61.652;17.100;2022-07-12T13:17:02;0.55;;;0.40;;
25707;SDS011;13567;61.652;17.100;2022-07-12T13:19:29;2.25;;;0.43;;
25707;SDS011;13567;61.652;17.100;2022-07-12T13:21:58;2.85;;;0.70;;
25707;SDS011;13567;61.652;17.100;2022-07-12T13:24:25;1.05;;;0.30;;
25707;SDS011;13567;61.652;17.100;2022-07-12T13:26:53;2.20;;;0.60;;
25707;SDS011;13567;61.652;17.100;2022-07-12T13:29:20;1.17;;;0.45;;
25707;SDS011;13567;61.652;17.100;2022-07-12T13:31:49;1.05;;;0.50;;
25707;SDS011;13567;61.652;17.100;2022-07-12T13:34:22;2.03;;;0.60;;
25707;SDS011;13567;61.652;17.100;2022-07-12T13:36:49;0.52;;;0.47;;
25707;SDS011;13567;61.652;17.100;2022-07-12T13:39:17;1.05;;;0.60;;
25707;SDS011;13567;61.652;17.100;2022-07-12T13:42:03;2.05;;;0.60;;
25707;SDS011;13567;61.652;17.100;2022-07-12T13:44:30;1.25;;;0.47;;
25707;SDS011;13567;61.652;17.100;2022-07-12T13:46:57;2.13;;;0.47;;
25707;SDS011;13567;61.652;17.100;2022-07-12T13:49:24;1.35;;;0.50;;
25707;SDS011;13567;61.652;17.100;2022-07-12T13:51:51;1.80;;;0.50;;
25707;SDS011;13567;61.652;17.100;2022-07-12T13:54:18;3.42;;;0.73;;
25707;SDS011;13567;61.652;17.100;2022-07-12T13:56:45;1.85;;;0.60;;
25707;SDS011;13567;61.652;17.100;2022-07-12T13:59:15;2.35;;;0.68;;
25707;SDS011;13567;61.652;17.100;2022-07-12T14:01:42;1.55;;;0.82;;
25707;SDS011;13567;61.652;17.100;2022-07-12T14:04:10;1.38;;;0.60;;
25707;SDS011;13567;61.652;17.100;2022-07-12T14:06:37;1.23;;;0.65;;
25707;SDS011;13567;61.652;17.100;2022-07-12T14:09:04;2.33;;;0.75;;
25707;SDS011;13567;61.652;17.100;2022-07-12T14:11:31;4.00;;;0.88;;
25707;SDS011;13567;61.652;17.100;2022-07-12T14:13:58;1.52;;;0.65;;
25707;SDS011;13567;61.652;17.100;2022-07-12T14:16:25;1.67;;;0.60;;
25707;SDS011;13567;61.652;17.100;2022-07-12T14:18:52;2.05;;;0.80;;
25707;SDS011;13567;61.652;17.100;2022-07-12T14:21:19;2.85;;;0.93;;
25707;SDS011;13567;61.652;17.100;2022-07-12T14:23:46;1.67;;;0.70;;
25707;SDS011;13567;61.652;17.100;2022-07-12T14:26:13;3.40;;;0.80;;
25707;SDS011;13567;61.652;17.100;2022-07-12T14:28:40;1.83;;;0.50;;
25707;SDS011;13567;61.652;17.100;2022-07-12T14:31:07;3.13;;;0.93;;
25707;SDS011;13567;61.652;17.100;2022-07-12T14:33:35;3.10;;;0.75;;
25707;SDS011;13567;61.652;17.100;2022-07-12T14:36:02;4.20;;;0.75;;
25707;SDS011;13567;61.652;17.100;2022-07-12T14:38:29;1.38;;;0.63;;
25707;SDS011;13567;61.652;17.100;2022-07-12T14:40:57;3.78;;;0.90;;
25707;SDS011;13567;61.652;17.100;2022-07-12T14:43:24;2.95;;;0.70;;
25707;SDS011;13567;61.652;17.100;2022-07-12T14:45:51;1.17;;;0.50;;
25707;SDS011;13567;61.652;17.100;2022-07-12T14:48:18;0.43;;;0.40;;
25707;SDS011;13567;61.652;17.100;2022-07-12T14:50:45;2.10;;;0.60;;
25707;SDS011;13567;61.652;17.100;2022-07-12T14:53:18;2.05;;;0.60;;
25707;SDS011;13567;61.652;17.100;2022-07-12T14:55:45;2.85;;;0.73;;
25707;SDS011;13567;61.652;17.100;2022-07-12T14:58:12;0.82;;;0.52;;
25707;SDS011;13567;61.652;17.100;2022-07-12T15:00:39;2.88;;;0.57;;
25707;SDS011;13567;61.652;17.100;2022-07-12T15:03:06;1.38;;;0.50;;